Latest Coastal Weather Observations for Eucla

IDS60701

Issued at 11:15 pm CST Thursday 18 September 2014 (issued every 10 minutes, with the page automatically refreshed every 10 minutes)

About coastal observations | Map of coastal stations | Coastal observations for SA | Marine services | Other Formats
Station Details ID: 011003 Name: EUCLA Lat: -31.68 Lon: 128.90 Height: 93.1 m
Data from the previous 72 hours. | See also: Recent months at Eucla
Date/Time
CST
Temp

°C
Wind Pressure Rain
since 9am
mm
Weather Cloud Vis
km
Sea
Height
m
Swell
Dir
 
Speed
knots
Gust
knots
hPa Trend Height
m
Period
s
Dir
18/11:00pm 13.0 E 9 15 1021.8 - 0.0 - - - - - - -
18/10:30pm 13.4 E 10 15 1021.7 - 0.0 - - - - - - -
18/10:00pm 13.6 E 13 20 1021.8 - 0.0 - - - - - - -
18/09:30pm 13.6 E 9 15 1022.0 - 0.0 - - - - - - -
18/09:00pm 13.7 E 12 17 1021.9 - 0.0 - - - - - - -
18/08:30pm 13.7 E 12 18 1021.9 - 0.0 - - - - - - -
18/08:00pm 13.7 E 11 17 1021.5 - 0.0 - - - - - - -
18/07:30pm 13.9 E 11 17 1021.4 - 0.0 - - - - - - -
18/07:00pm 14.1 E 12 19 1021.2 - 0.0 - - - - - - -
18/06:30pm 14.5 E 12 18 1021.2 - 0.0 - - - - - - -
18/06:00pm 15.1 ESE 11 18 1021.1 - 0.0 - - - - - - -
18/05:30pm 15.7 ESE 14 21 1020.9 - 0.0 - - - - - - -
18/05:00pm 16.2 ESE 13 20 1020.9 - 0.0 - - - - - - -
18/04:30pm 16.2 ESE 15 21 1020.8 - 0.0 - - - - - - -
18/04:00pm 16.6 ESE 14 21 1020.9 - 0.0 - - - - - - -
18/03:30pm 17.1 ESE 13 21 1021.0 - 0.0 - - - - - - -
18/03:00pm 16.8 ESE 15 21 1021.2 - 0.0 - - - - - - -
18/02:30pm 18.1 ESE 12 17 1021.6 - 0.0 - - - - - - -
18/02:00pm 17.8 ESE 13 17 1022.1 - 0.0 - - - - - - -
18/01:30pm 20.1 NE 6 14 1022.5 - 0.0 - - - - - - -
18/01:00pm 19.5 NE 9 16 1022.5 - 0.0 - - - - - - -
18/12:30pm 17.9 ENE 8 15 1023.5 - 0.0 - - - - - - -
18/12:00pm 15.7 E 5 9 1024.6 - 0.0 - - - - - - -
18/11:30am 15.7 NE 7 11 1024.5 - 0.0 - - - - - - -
18/11:00am 14.9 ENE 9 13 1023.8 - 0.0 - - - - - - -
18/10:30am 14.0 NE 9 14 1024.9 - 0.0 - - - - - - -
18/10:00am 12.9 NNE 8 12 1025.2 - 0.0 - - - - - - -
18/09:30am 12.7 NNE 9 13 1025.1 - 0.0 - - - - - - -
18/09:00am 12.5 NNE 9 14 1024.1 - 0.0 - - - - - - -
18/08:30am 12.0 NE 9 14 1024.2 - 0.0 - - - - - - -
18/08:00am 11.7 NE 9 14 1024.0 - 0.0 - - - - - - -
18/07:30am 11.3 NNE 7 10 1024.6 - 0.0 - - - - - - -
18/07:00am 11.3 NNE 6 8 1024.9 - 0.0 - - - - - - -
18/06:30am 11.5 ENE 5 6 1024.5 - 0.0 - - - - - - -
18/06:00am 11.9 ENE 5 9 1024.4 - 0.0 - - - - - - -
18/05:30am 11.9 ENE 8 11 1022.9 - 0.0 - - - - - - -
18/05:00am 12.1 ENE 7 9 1023.2 - 0.0 - - - - - - -
18/04:30am 11.9 ENE 7 11 1023.0 - 0.0 - - - - - - -
18/04:00am 11.7 ENE 8 11 1022.4 - 0.0 - - - - - - -
18/03:30am 11.4 ENE 7 11 1022.6 - 0.0 - - - - - - -
18/03:00am 11.0 ENE 5 7 1023.2 - 0.0 - - - - - - -
18/02:30am 11.6 NE 5 7 1023.6 - 0.0 - - - - - - -
18/02:00am 11.8 ENE 7 9 1023.2 - 0.0 - - - - - - -
18/01:30am 11.9 E 8 14 1022.7 - 0.0 - - - - - - -
18/01:00am 10.9 ENE 7 9 1022.7 - 0.0 - - - - - - -
18/12:30am 10.7 E 6 7 1023.1 - 0.0 - - - - - - -
18/12:00am 11.0 NE 4 5 1023.8 - 0.0 - - - - - - -
 
Date/Time
CST
Temp

°C
Wind Pressure Rain
since 9am
mm
Weather Cloud Vis
km
Sea
Height
m
Swell
Dir
 
Speed
knots
Gust
knots
hPa Trend Height
m
Period
s
Dir
17/11:30pm 12.0 ENE 5 7 1024.1 - 0.0 - - - - - - -
17/11:00pm 12.9 E 7 12 1024.2 - 0.0 - - - - - - -
17/10:30pm 12.9 E 8 12 1024.1 - 0.0 - - - - - - -
17/10:00pm 13.2 E 9 13 1024.1 - 0.0 - - - - - - -
17/09:30pm 13.1 E 7 11 1024.3 - 0.0 - - - - - - -
17/09:00pm 13.1 E 8 10 1024.1 - 0.0 - - - - - - -
17/08:30pm 13.3 E 8 13 1023.9 - 0.0 - - - - - - -
17/08:00pm 13.6 E 8 13 1023.4 - 0.0 - - - - - - -
17/07:30pm 13.5 E 8 13 1023.1 - 0.0 - - - - - - -
17/07:00pm 13.8 E 9 15 1022.9 - 0.0 - - - - - - -
17/06:30pm 14.4 E 11 17 1022.8 - 0.0 - - - - - - -
17/06:00pm 15.0 E 11 17 1022.7 - 0.0 - - - - - - -
17/05:30pm 15.8 ESE 13 19 1022.5 - 0.0 - - - - - - -
17/05:00pm 16.1 ESE 11 18 1022.3 - 0.0 - - - - - - -
17/04:30pm 16.6 E 13 18 1022.2 - 0.0 - - - - - - -
17/04:00pm 16.7 ESE 11 17 1022.1 - 0.0 - - - - - - -
17/03:30pm 16.7 E 12 19 1022.1 - 0.0 - - - - - - -
17/03:00pm 17.1 ESE 12 18 1022.3 - 0.0 - - - - - - -
17/02:30pm 17.6 ESE 11 17 1022.5 - 0.0 - - - - - - -
17/02:00pm 17.5 ESE 12 17 1022.8 - 0.0 - - - - - - -
17/01:30pm 17.3 ESE 12 17 1022.9 - 0.0 - - - - - - -
17/01:00pm 17.1 ESE 13 18 1023.2 - 0.0 - - - - - - -
17/12:30pm 16.9 ESE 12 18 1023.5 - 0.0 - - - - - - -
17/12:00pm 17.6 ESE 13 19 1024.0 - 0.0 - - - - - - -
17/11:30am 16.7 ESE 12 17 1024.4 - 0.0 - - - - - - -
17/11:00am 17.4 ENE 8 13 1024.6 - 0.0 - - - - - - -
17/10:30am 16.7 ENE 8 14 1024.7 - 0.0 - - - - - - -
17/10:00am 15.8 ENE 10 15 1024.8 - 0.0 - - - - - - -
17/09:30am 15.0 ENE 10 15 1024.9 - 0.0 - - - - - - -
17/09:00am 14.4 ENE 8 13 1024.8 - 0.0 - - - - - - -
17/08:30am 11.7 NE 7 10 1024.5 - 0.0 - - - - - - -
17/08:00am 8.9 NE 6 9 1024.1 - 0.0 - - - - - - -
17/07:30am 6.7 NE 6 7 1023.8 - 0.0 - - - - - - -
17/07:00am 6.2 NE 7 9 1023.6 - 0.0 - - - - - - -
17/06:30am 6.3 NE 6 8 1023.5 - 0.0 - - - - - - -
17/06:00am 6.3 NE 7 7 1023.0 - 0.0 - - - - - - -
17/05:30am 5.0 NNE 6 7 1022.7 - 0.0 - - - - - - -
17/05:00am 4.4 NNE 6 6 1022.6 - 0.0 - - - - - - -
17/04:30am 5.5 NNE 6 7 1022.5 - 0.0 - - - - - - -
17/04:00am 8.8 E 5 6 1022.4 - 0.0 - - - - - - -
17/03:30am 9.2 E 5 7 1022.4 - 0.0 - - - - - - -
17/03:00am 10.1 E 6 8 1022.4 - 0.0 - - - - - - -
17/02:30am 9.8 E 6 8 1022.7 - 0.0 - - - - - - -
17/02:00am 10.7 ESE 6 8 1023.0 - 0.0 - - - - - - -
17/01:30am 10.8 ESE 6 8 1023.1 - 0.0 - - - - - - -
17/01:00am 10.6 SE 6 8 1023.4 - 0.0 - - - - - - -
17/12:30am 10.3 SE 5 7 1023.7 - 0.0 - - - - - - -
17/12:00am 10.6 SE 5 7 1024.0 - 0.0 - - - - - - -
 
Date/Time
CST
Temp

°C
Wind Pressure Rain
since 9am
mm
Weather Cloud Vis
km
Sea
Height
m
Swell
Dir
 
Speed
knots
Gust
knots
hPa Trend Height
m
Period
s
Dir
16/11:30pm 10.4 SE 5 8 1024.1 - 0.0 - - - - - - -
16/11:00pm 10.6 SSE 5 6 1024.2 - 0.0 - - - - - - -
16/10:30pm 10.6 SSE 5 7 1024.1 - 0.0 - - - - - - -
16/10:00pm 10.6 S 5 6 1024.1 - 0.0 - - - - - - -
16/09:30pm 10.9 S 5 6 1024.0 - 0.0 - - - - - - -
16/09:00pm 11.3 S 5 6 1024.1 - 0.0 - - - - - - -
16/08:30pm 11.8 S 6 8 1024.0 - 0.0 - - - - - - -
16/08:00pm 12.2 S 7 10 1023.6 - 0.0 - - - - - - -
16/07:30pm 12.7 S 8 12 1023.4 - 0.0 - - - - - - -
16/07:00pm 13.1 S 8 13 1023.0 - 0.0 - - - - - - -
16/06:30pm 13.8 S 10 15 1022.8 - 0.0 - - - - - - -
16/06:00pm 14.7 S 9 16 1022.6 - 0.0 - - - - - - -
16/05:30pm 14.8 S 10 17 1022.2 - 0.0 - - - - - - -
16/05:00pm 16.3 S 11 16 1021.9 - 0.0 - - - - - - -
16/04:30pm 16.8 S 10 17 1021.8 - 0.0 - - - - - - -
16/04:00pm 17.3 S 10 15 1021.4 - 0.0 - - - - - - -
16/03:30pm 17.4 S 9 16 1021.6 - 0.0 - - - - - - -
16/03:00pm 17.3 SSE 9 14 1021.6 - 0.0 - - - - - - -
16/02:30pm 18.1 S 9 14 1021.9 - 0.0 - - - - - - -
16/02:00pm 18.3 S 8 13 1022.1 - 0.0 - - - - - - -
16/01:30pm 17.9 S 9 13 1022.3 - 0.0 - - - - - - -
16/01:00pm 18.4 S 8 12 1022.7 - 0.0 - - - - - - -
16/12:30pm 17.0 S 7 12 1022.6 - 0.0 - - - - - - -
16/12:00pm 16.6 SSE 6 10 1022.6 - 0.0 - - - - - - -
16/11:30am 15.9 S 8 12 1022.6 - 0.0 - - - - - - -
16/11:00am 16.8 SSE 8 14 1022.9 - 0.0 - - - - - - -
16/10:30am 15.7 S 7 11 1023.2 - 0.0 - - - - - - -
16/10:00am 17.3 SSE 7 12 1023.3 - 0.0 - - - - - - -
16/09:30am 15.5 S 6 8 1023.4 - 0.0 - - - - - - -
16/09:00am 14.9 NNE 2 4 1023.4 - 0.0 - - - - - - -
16/08:30am 13.2 NNW 5 5 1023.5 - 0.0 - - - - - - -
16/08:00am 9.9 NNW 4 5 1023.3 - 0.0 - - - - - - -
16/07:30am 7.1 NNW 5 6 1023.1 - 0.0 - - - - - - -
16/07:00am 6.1 NNW 5 6 1022.8 - 0.0 - - - - - - -
16/06:30am 5.7 N 5 6 1022.7 - 0.0 - - - - - - -
16/06:00am 8.3 NE 3 5 1022.4 - 0.0 - - - - - - -
16/05:30am 10.4 SSE 5 6 1022.3 - 0.0 - - - - - - -
16/05:00am 10.2 S 5 7 1021.9 - 0.0 - - - - - - -
16/04:30am 10.4 SSE 6 7 1021.9 - 0.0 - - - - - - -
16/04:00am 10.4 S 5 7 1021.7 - 0.0 - - - - - - -
16/03:30am 10.2 S 5 6 1021.9 - 0.0 - - - - - - -
16/03:00am 10.4 S 5 6 1021.9 - 0.0 - - - - - - -
16/02:30am 10.9 S 5 7 1022.1 - 0.0 - - - - - - -
16/02:00am 11.3 S 4 6 1022.3 - 0.0 - - - - - - -
16/01:30am 11.5 SSE 5 7 1022.5 - 0.0 - - - - - - -
16/01:00am 12.0 S 5 7 1022.7 - 0.0 - - - - - - -

Other Formats:

Comma delimited format used in spreadsheet applications
http://www.bom.gov.au/fwo/IDS60701/IDS60701.94647.axf

JavaScript Object Notation format (JSON) in row-major order
http://www.bom.gov.au/fwo/IDS60701/IDS60701.94647.json